createdAt,value
2014-06-19T15:53:37.995Z,100661
2014-06-19T15:53:56.323Z,100651
2014-06-19T15:54:14.651Z,100659
2014-06-19T15:54:32.982Z,100654
2014-06-19T15:54:51.326Z,100654
2014-06-19T15:55:09.654Z,100651
2014-06-19T15:55:27.982Z,100653
2014-06-19T15:55:46.312Z,100658
2014-06-19T15:56:04.640Z,100653
2014-06-19T15:56:22.984Z,100658
2014-06-19T15:56:41.378Z,100658
2014-06-19T15:56:59.706Z,100655
2014-06-19T15:57:18.049Z,100658
2014-06-19T15:57:36.365Z,100655
2014-06-19T15:57:54.693Z,100661
2014-06-19T15:58:13.021Z,100655
2014-06-19T15:58:31.349Z,100661
2014-06-19T15:58:49.774Z,100666
2014-06-19T15:59:08.118Z,100672
2014-06-19T15:59:26.446Z,100669
2014-06-19T15:59:44.776Z,100664
2014-06-19T16:00:03.104Z,100664
2014-06-19T16:00:21.432Z,100672
2014-06-19T16:00:39.776Z,100666
2014-06-19T16:00:58.106Z,100666
2014-06-19T16:01:16.434Z,100660
2014-06-19T16:01:34.763Z,100663
2014-06-19T16:01:53.108Z,100666
2014-06-19T16:02:11.452Z,100666
2014-06-19T16:02:29.780Z,100660
2014-06-19T16:02:48.108Z,100669
2014-06-19T16:03:06.610Z,100669
2014-06-19T16:03:24.767Z,100675
2014-06-19T16:03:43.095Z,100669
2014-06-19T16:04:01.440Z,100672
2014-06-19T16:04:19.769Z,100666
2014-06-19T16:04:38.097Z,100658
2014-06-19T16:04:56.427Z,100669
2014-06-19T16:05:14.771Z,100672
2014-06-19T16:05:33.099Z,100668
2014-06-19T16:05:51.692Z,100659
2014-06-19T16:06:09.756Z,100668
2014-06-19T16:06:28.068Z,100665
2014-06-19T16:06:46.397Z,100656
2014-06-19T16:07:04.742Z,100663
2014-06-19T16:07:23.070Z,100660
2014-06-19T16:07:41.414Z,100665
2014-06-19T16:07:59.744Z,100671
2014-06-19T16:08:18.072Z,100659
2014-06-19T16:08:36.401Z,100654
2014-06-19T16:08:54.731Z,100671
2014-06-19T16:09:13.059Z,100670
2014-06-19T16:09:31.387Z,100665
2014-06-19T16:09:49.731Z,100667
2014-06-19T16:10:08.061Z,100662
2014-06-19T16:10:26.389Z,100662
2014-06-19T16:10:44.733Z,100654
2014-06-19T16:11:03.047Z,100670
2014-06-19T16:11:21.391Z,100676
2014-06-19T16:11:40.032Z,100673
2014-06-19T16:11:58.362Z,100656
2014-06-19T16:12:16.940Z,100673
2014-06-19T16:12:35.034Z,100658
2014-06-19T16:12:53.784Z,100661
2014-06-19T16:13:12.114Z,100667
2014-06-19T16:13:30.457Z,100664
2014-06-19T16:13:49.411Z,100676
2014-06-19T16:14:07.117Z,100670
2014-06-19T16:14:25.445Z,100658
2014-06-19T16:14:43.789Z,100670
2014-06-19T16:15:02.117Z,100664
2014-06-19T16:15:20.446Z,100661
2014-06-19T16:15:38.774Z,100667
2014-06-19T16:15:57.133Z,100664
2014-06-19T16:16:15.464Z,100670
2014-06-19T16:16:33.793Z,100655
2014-06-19T16:16:52.136Z,100661
2014-06-19T16:17:10.464Z,100661
2014-06-19T16:17:28.794Z,100655
2014-06-19T16:17:47.122Z,100661
2014-06-19T16:18:05.450Z,100670
2014-06-19T16:18:23.811Z,100667
2014-06-19T16:18:42.155Z,100670
2014-06-19T16:19:00.483Z,100675
2014-06-19T16:19:18.811Z,100667
2014-06-19T16:19:37.142Z,100670
2014-06-19T16:19:55.486Z,100673
2014-06-19T16:20:13.830Z,100673
2014-06-19T16:20:32.176Z,100670
2014-06-19T16:20:50.504Z,100664
2014-06-19T16:21:08.832Z,100673
2014-06-19T16:21:27.160Z,100670
2014-06-19T16:21:45.506Z,100664
2014-06-19T16:22:03.834Z,100667
2014-06-19T16:22:22.178Z,100667
2014-06-19T16:22:40.508Z,100661
2014-06-19T16:22:58.836Z,100676
2014-06-19T16:23:17.180Z,100667
2014-06-19T16:23:35.509Z,100667
2014-06-19T16:23:53.852Z,100667
2014-06-19T16:24:12.181Z,100658
2014-06-19T16:24:30.509Z,100658
2014-06-19T16:24:48.854Z,100654
2014-06-19T16:25:07.183Z,100664
2014-06-19T16:25:25.511Z,100658
2014-06-19T16:25:43.841Z,100667
2014-06-19T16:26:02.169Z,100664
2014-06-19T16:26:20.497Z,100673
2014-06-19T16:26:38.843Z,100658
2014-06-19T16:26:57.171Z,100658
2014-06-19T16:27:15.499Z,100658
2014-06-19T16:27:34.157Z,100655
2014-06-19T16:27:52.204Z,100658
2014-06-19T16:28:10.532Z,100664
2014-06-19T16:28:28.860Z,100654
2014-06-19T16:28:47.206Z,100661
2014-06-19T16:29:05.534Z,100656
2014-06-19T16:29:23.862Z,100658
2014-06-19T16:29:42.193Z,100664
2014-06-19T16:30:00.521Z,100658
2014-06-19T16:30:18.849Z,100661
2014-06-19T16:30:37.195Z,100661
2014-06-19T16:30:55.523Z,100661
2014-06-19T16:31:13.866Z,100659
2014-06-19T16:31:32.195Z,100661
2014-06-19T16:31:50.525Z,100664
2014-06-19T16:32:08.853Z,100664
2014-06-19T16:32:27.181Z,100661
2014-06-19T16:32:45.527Z,100667
2014-06-19T16:33:03.855Z,100659
2014-06-19T16:33:22.199Z,100661
2014-06-19T16:33:40.528Z,100673
2014-06-19T16:33:58.856Z,100661
2014-06-19T16:34:17.184Z,100667
2014-06-19T16:34:35.530Z,100664
2014-06-19T16:34:53.858Z,100656
2014-06-19T16:35:12.186Z,100659
2014-06-19T16:35:30.514Z,100670
2014-06-19T16:35:48.861Z,100665
2014-06-19T16:36:07.189Z,100665
2014-06-19T16:36:25.517Z,100649
2014-06-19T16:36:43.863Z,100656
2014-06-19T16:37:02.191Z,100656
2014-06-19T16:37:20.519Z,100656
2014-06-19T16:37:38.848Z,100655
2014-06-19T16:37:57.176Z,100662
2014-06-19T16:38:15.520Z,100657
2014-06-19T16:38:33.850Z,100656
2014-06-19T16:38:52.194Z,100649
2014-06-19T16:39:10.522Z,100665
2014-06-19T16:39:28.866Z,100656
2014-06-19T16:39:47.196Z,100659
2014-06-19T16:40:05.524Z,100652
2014-06-19T16:40:23.852Z,100652
2014-06-19T16:40:42.182Z,100656
2014-06-19T16:41:00.510Z,100659
2014-06-19T16:41:18.854Z,100637
2014-06-19T16:41:37.184Z,100649
2014-06-19T16:41:55.528Z,100654
2014-06-19T16:42:13.856Z,100654
2014-06-19T16:42:32.184Z,100654
2014-06-19T16:42:50.530Z,100649
2014-06-19T16:43:08.858Z,100651
2014-06-19T16:43:27.186Z,100665
2014-06-19T16:43:45.516Z,100648
2014-06-19T16:44:03.845Z,100646
2014-06-19T16:44:22.188Z,100662
2014-06-19T16:44:40.532Z,100654
2014-06-19T16:44:58.862Z,100646
2014-06-19T16:45:17.190Z,100662
2014-06-19T16:45:35.534Z,100656
2014-06-19T16:45:53.864Z,100659
2014-06-19T16:46:12.208Z,100665
2014-06-19T16:46:30.520Z,100656
2014-06-19T16:46:48.866Z,100662
2014-06-19T16:47:07.194Z,100668
2014-06-19T16:47:25.522Z,100659
2014-06-19T16:47:43.868Z,100665
2014-06-19T16:48:02.196Z,100665
2014-06-19T16:48:20.524Z,100662
2014-06-19T16:48:38.868Z,100667
2014-06-19T16:48:57.198Z,100665
2014-06-19T16:49:15.526Z,100665
2014-06-19T16:49:33.870Z,100654
2014-06-19T16:49:52.199Z,100665
2014-06-19T16:50:10.527Z,100662
2014-06-19T16:50:28.856Z,100662
2014-06-19T16:50:47.202Z,100673
2014-06-19T16:51:05.530Z,100656
2014-06-19T16:51:23.859Z,100659
2014-06-19T16:51:42.189Z,100664
2014-06-19T16:52:00.736Z,100659
2014-06-19T16:52:18.861Z,100659
2014-06-19T16:52:37.189Z,100662
2014-06-19T16:52:55.533Z,100664
2014-06-19T16:53:13.862Z,100659
2014-06-19T16:53:32.190Z,100662
2014-06-19T16:53:50.536Z,100659
2014-06-19T16:54:09.365Z,100664
2014-06-19T16:54:27.193Z,100659
2014-06-19T16:54:45.537Z,100662
2014-06-19T16:55:03.866Z,100659
2014-06-19T16:55:22.209Z,100661
2014-06-19T16:55:40.537Z,100651
2014-06-19T16:55:58.868Z,100659
2014-06-19T16:56:17.211Z,100667
2014-06-19T16:56:35.539Z,100664
2014-06-19T16:56:53.870Z,100656
2014-06-19T16:57:12.213Z,100664
2014-06-19T16:57:30.557Z,100667
2014-06-19T16:57:48.887Z,100664
2014-06-19T16:58:07.215Z,100670
2014-06-19T16:58:25.559Z,100659
2014-06-19T16:58:43.889Z,100661
2014-06-19T16:59:02.217Z,100667
2014-06-19T16:59:20.545Z,100670
2014-06-19T16:59:38.889Z,100664
2014-06-19T16:59:57.219Z,100667
2014-06-19T17:00:15.751Z,100664
2014-06-19T17:00:33.876Z,100667
2014-06-19T17:00:52.221Z,100659
2014-06-19T17:01:10.549Z,100654
2014-06-19T17:01:28.893Z,100656
2014-06-19T17:01:47.223Z,100664
2014-06-19T17:02:05.567Z,100656
2014-06-19T17:02:23.895Z,100659
2014-06-19T17:02:42.224Z,100659
2014-06-19T17:03:00.552Z,100654
2014-06-19T17:03:18.881Z,100661
2014-06-19T17:03:37.224Z,100659
2014-06-19T17:03:55.555Z,100667
2014-06-19T17:04:13.899Z,100659
2014-06-19T17:04:32.227Z,100651
2014-06-19T17:04:50.557Z,100651
2014-06-19T17:05:08.901Z,100656
2014-06-19T17:05:27.229Z,100654
2014-06-19T17:05:45.557Z,100656
2014-06-19T17:06:03.887Z,100654
2014-06-19T17:06:22.215Z,100659
2014-06-19T17:06:40.558Z,100662
2014-06-19T17:06:58.889Z,100665
2014-06-19T17:07:17.232Z,100656
2014-06-19T17:07:35.560Z,100659
2014-06-19T17:07:53.906Z,100656
2014-06-19T17:08:12.234Z,100659
2014-06-19T17:08:30.562Z,100659
2014-06-19T17:08:48.891Z,100659
2014-06-19T17:09:07.221Z,100655
2014-06-19T17:09:25.564Z,100655
2014-06-19T17:09:43.893Z,100646
2014-06-19T17:10:02.223Z,100657
2014-06-19T17:10:20.551Z,100659
2014-06-19T17:10:38.879Z,100652
2014-06-19T17:10:57.209Z,100652
2014-06-19T17:11:15.537Z,100655
2014-06-19T17:11:33.881Z,100649
2014-06-19T17:11:52.212Z,100646
2014-06-19T17:12:10.540Z,100649
2014-06-19T17:12:28.884Z,100655
2014-06-19T17:12:47.212Z,100649
2014-06-19T17:13:05.541Z,100652
2014-06-19T17:13:23.869Z,100652
2014-06-19T17:13:42.213Z,100649
2014-06-19T17:14:00.543Z,100655
2014-06-19T17:14:18.871Z,100657
2014-06-19T17:14:37.215Z,100665
2014-06-19T17:14:55.545Z,100657
2014-06-19T17:15:13.873Z,100652
2014-06-19T17:15:32.201Z,100652
2014-06-19T17:15:50.530Z,100660
2014-06-19T17:16:08.891Z,100655
2014-06-19T17:16:27.219Z,100657
2014-06-19T17:16:45.563Z,100655
2014-06-19T17:17:03.893Z,100657
2014-06-19T17:17:22.221Z,100655
2014-06-19T17:17:40.565Z,100660
2014-06-19T17:17:58.895Z,100668
2014-06-19T17:18:17.223Z,100652
2014-06-19T17:18:35.551Z,100660
2014-06-19T17:18:53.881Z,100655
2014-06-19T17:19:12.225Z,100649
2014-06-19T17:19:30.553Z,100649
2014-06-19T17:19:48.881Z,100655
2014-06-19T17:20:07.211Z,100652
2014-06-19T17:20:25.540Z,100640
2014-06-19T17:20:43.930Z,100652
2014-06-19T17:21:02.260Z,100649
2014-06-19T17:21:20.588Z,100638
2014-06-19T17:21:38.917Z,100652
2014-06-19T17:21:57.262Z,100659
2014-06-19T17:22:15.590Z,100640
2014-06-19T17:22:33.919Z,100655
2014-06-19T17:22:52.248Z,100659
2014-06-19T17:23:10.591Z,100643
2014-06-19T17:23:28.920Z,100659
2014-06-19T17:23:47.248Z,100657
2014-06-19T17:24:05.578Z,100662
2014-06-19T17:24:23.906Z,100655
2014-06-19T17:24:42.234Z,100646
2014-06-19T17:25:00.565Z,100649
2014-06-19T17:25:18.909Z,100652
2014-06-19T17:25:37.237Z,100652
2014-06-19T17:25:55.566Z,100646
2014-06-19T17:26:13.894Z,100649
2014-06-19T17:26:32.238Z,100652
2014-06-19T17:26:50.863Z,100647
2014-06-19T17:27:08.912Z,100647
2014-06-19T17:27:27.240Z,100644
2014-06-19T17:27:45.584Z,100649
2014-06-19T17:28:03.914Z,100629
2014-06-19T17:28:22.242Z,100644
2014-06-19T17:28:40.570Z,100655
2014-06-19T17:28:58.900Z,100641
2014-06-19T17:29:17.244Z,100638
2014-06-19T17:29:35.572Z,100650
2014-06-19T17:29:53.900Z,100641
2014-06-19T17:30:12.245Z,100650
2014-06-19T17:30:30.573Z,100650
2014-06-19T17:30:48.901Z,100647
2014-06-19T17:31:07.232Z,100647
2014-06-19T17:31:25.561Z,100650
2014-06-19T17:31:43.904Z,100652
2014-06-19T17:32:02.232Z,100647
2014-06-19T17:32:20.563Z,100644
2014-06-19T17:32:38.891Z,100652
2014-06-19T17:32:57.219Z,100647
2014-06-19T17:33:15.549Z,100647
2014-06-19T17:33:33.877Z,100641
2014-06-19T17:33:52.221Z,100644
2014-06-19T17:34:10.549Z,100649
2014-06-19T17:34:28.879Z,100644
2014-06-19T17:34:47.207Z,100647
2014-06-19T17:35:05.535Z,100655
2014-06-19T17:35:23.865Z,100647
2014-06-19T17:35:42.194Z,100657
2014-06-19T17:36:00.522Z,100652
2014-06-19T17:36:18.865Z,100655
2014-06-19T17:36:37.196Z,100647
2014-06-19T17:36:55.524Z,100650
2014-06-19T17:37:13.852Z,100641
2014-06-19T17:37:32.199Z,100644
2014-06-19T17:37:50.527Z,100650
2014-06-19T17:38:08.870Z,100657
2014-06-19T17:38:27.199Z,100647
2014-06-19T17:38:45.529Z,100644
2014-06-19T17:39:03.857Z,100652
2014-06-19T17:39:22.201Z,100647
2014-06-19T17:39:40.530Z,100649
2014-06-19T17:39:58.858Z,100650
2014-06-19T17:40:17.202Z,100652
2014-06-19T17:40:35.735Z,100653
2014-06-19T17:40:53.875Z,100650
2014-06-19T17:41:12.204Z,100655
2014-06-19T17:41:30.532Z,100650
2014-06-19T17:41:48.862Z,100655
2014-06-19T17:42:07.206Z,100666
2014-06-19T17:42:25.534Z,100649
2014-06-19T17:42:43.864Z,100646
2014-06-19T17:43:02.192Z,100654
2014-06-19T17:43:20.520Z,100654
2014-06-19T17:43:38.864Z,100648
2014-06-19T17:43:57.194Z,100651
2014-06-19T17:44:15.538Z,100651
2014-06-19T17:44:33.866Z,100648
2014-06-19T17:44:52.196Z,100661
2014-06-19T17:45:10.524Z,100661
2014-06-19T17:45:28.852Z,100640
2014-06-19T17:45:47.196Z,100659
2014-06-19T17:46:05.527Z,100654
2014-06-19T17:46:23.855Z,100651
2014-06-19T17:46:42.183Z,100651
2014-06-19T17:47:00.528Z,100661
2014-06-19T17:47:18.856Z,100643
2014-06-19T17:47:37.200Z,100648
2014-06-19T17:47:55.528Z,100640
2014-06-19T17:48:13.858Z,100643
2014-06-19T17:48:32.186Z,100645
2014-06-19T17:48:50.514Z,100651
2014-06-19T17:49:08.846Z,100642
2014-06-19T17:49:27.174Z,100648
2014-06-19T17:49:45.517Z,100651
2014-06-19T17:50:03.846Z,100654
2014-06-19T17:50:22.176Z,100654
2014-06-19T17:50:40.504Z,100648
2014-06-19T17:50:58.832Z,100645
2014-06-19T17:51:17.162Z,100648
2014-06-19T17:51:35.490Z,100654
2014-06-19T17:51:53.834Z,100656
2014-06-19T17:52:12.162Z,100659
2014-06-19T17:52:30.492Z,100648
2014-06-19T17:52:48.820Z,100648
2014-06-19T17:53:07.164Z,100637
2014-06-19T17:53:25.494Z,100640
2014-06-19T17:53:43.822Z,100643
2014-06-19T17:54:02.150Z,100651
2014-06-19T17:54:20.494Z,100640
2014-06-19T17:54:38.824Z,100640
2014-06-19T17:54:57.152Z,100637
2014-06-19T17:55:15.481Z,100648
2014-06-19T17:55:33.811Z,100637
2014-06-19T17:55:52.139Z,100645
2014-06-19T17:56:10.467Z,100640
2014-06-19T17:56:28.811Z,100656
2014-06-19T17:56:47.141Z,100640
2014-06-19T17:57:05.485Z,100640
2014-06-19T17:57:23.813Z,100643
2014-06-19T17:57:42.143Z,100654
2014-06-19T17:58:00.487Z,100640
2014-06-19T17:58:18.815Z,100645
2014-06-19T17:58:37.144Z,100648
2014-06-19T17:58:55.488Z,100640
2014-06-19T17:59:13.816Z,100645
2014-06-19T17:59:32.144Z,100645
2014-06-19T17:59:50.474Z,100645
2014-06-19T18:00:08.818Z,100654
2014-06-19T18:00:27.130Z,100643
2014-06-19T18:00:45.477Z,100643
2014-06-19T18:01:03.805Z,100648
2014-06-19T18:01:22.133Z,100656
2014-06-19T18:01:40.463Z,100648
2014-06-19T18:01:58.807Z,100648
2014-06-19T18:02:17.135Z,100651
2014-06-19T18:02:35.463Z,100645
2014-06-19T18:02:53.808Z,100648
2014-06-19T18:03:12.136Z,100642
2014-06-19T18:03:30.464Z,100648
2014-06-19T18:03:48.794Z,100648
2014-06-19T18:04:07.138Z,100643
2014-06-19T18:04:25.466Z,100648
2014-06-19T18:04:43.797Z,100654
2014-06-19T18:05:02.126Z,100646
2014-06-19T18:05:20.454Z,100637
2014-06-19T18:05:38.799Z,100652
2014-06-19T18:05:57.128Z,100656
2014-06-19T18:06:15.456Z,100649
2014-06-19T18:06:33.784Z,100649
2014-06-19T18:06:52.114Z,100646
2014-06-19T18:07:10.458Z,100655
2014-06-19T18:07:28.786Z,100652
2014-06-19T18:07:47.115Z,100643
2014-06-19T18:08:05.443Z,100649
2014-06-19T18:08:23.771Z,100657
2014-06-19T18:08:42.101Z,100643
2014-06-19T18:09:00.429Z,100646
2014-06-19T18:09:18.758Z,100649
2014-06-19T18:09:37.103Z,100655
2014-06-19T18:09:55.416Z,100657
2014-06-19T18:10:13.760Z,100649
2014-06-19T18:10:32.088Z,100649
2014-06-19T18:10:50.418Z,100649
2014-06-19T18:11:08.762Z,100649
2014-06-19T18:11:27.090Z,100655
2014-06-19T18:11:45.420Z,100649
2014-06-19T18:12:03.748Z,100641
2014-06-19T18:12:22.092Z,100657
2014-06-19T18:12:40.422Z,100652
2014-06-19T18:12:58.750Z,100641
2014-06-19T18:13:17.094Z,100649
2014-06-19T18:13:35.422Z,100655
2014-06-19T18:13:53.752Z,100652
2014-06-19T18:14:12.080Z,100655
2014-06-19T18:14:30.424Z,100655
2014-06-19T18:14:48.754Z,100652
2014-06-19T18:15:07.082Z,100650
2014-06-19T18:15:25.426Z,100655
2014-06-19T18:15:43.771Z,100652
2014-06-19T18:16:02.099Z,100647
2014-06-19T18:16:20.442Z,100655
2014-06-19T18:16:38.773Z,100657
2014-06-19T18:16:57.101Z,100647
2014-06-19T18:17:15.444Z,100647
2014-06-19T18:17:33.773Z,100650
2014-06-19T18:17:52.103Z,100644
2014-06-19T18:18:10.431Z,100644
2014-06-19T18:18:28.775Z,100657
2014-06-19T18:18:47.106Z,100650
2014-06-19T18:19:05.434Z,100644
2014-06-19T18:19:23.762Z,100653
2014-06-19T18:19:42.107Z,100641
2014-06-19T18:20:00.435Z,100650
2014-06-19T18:20:18.763Z,100641
2014-06-19T18:20:37.109Z,100644
2014-06-19T18:20:55.452Z,100647
2014-06-19T18:21:13.781Z,100647
2014-06-19T18:21:32.124Z,100647
2014-06-19T18:21:50.454Z,100641
2014-06-19T18:22:08.783Z,100647
2014-06-19T18:22:27.126Z,100647
2014-06-19T18:22:45.456Z,100638
2014-06-19T18:23:03.785Z,100638
2014-06-19T18:23:22.113Z,100638
2014-06-19T18:23:40.443Z,100641
2014-06-19T18:23:58.787Z,100647
2014-06-19T18:24:17.115Z,100653
2014-06-19T18:24:35.443Z,100635
2014-06-19T18:24:53.789Z,100638
2014-06-19T18:25:12.117Z,100635
2014-06-19T18:25:30.445Z,100644
2014-06-19T18:25:48.791Z,100635
2014-06-19T18:26:07.119Z,100647
2014-06-19T18:26:25.462Z,100647
2014-06-19T18:26:43.792Z,100650
2014-06-19T18:27:02.120Z,100641
2014-06-19T18:27:20.448Z,100635
2014-06-19T18:27:38.794Z,100653
2014-06-19T18:27:57.122Z,100647
2014-06-19T18:28:15.450Z,100650
2014-06-19T18:28:33.794Z,100644
2014-06-19T18:28:52.124Z,100647
2014-06-19T18:29:10.452Z,100650
2014-06-19T18:29:28.796Z,100647
2014-06-19T18:29:47.126Z,100638
2014-06-19T18:30:05.454Z,100641
2014-06-19T18:30:23.798Z,100641
2014-06-19T18:30:42.128Z,100641
2014-06-19T18:31:00.456Z,100647
2014-06-19T18:31:18.784Z,100638
2014-06-19T18:31:37.112Z,100653
2014-06-19T18:31:55.442Z,100641
2014-06-19T18:32:13.786Z,100655
2014-06-19T18:32:32.114Z,100641
2014-06-19T18:32:50.444Z,100641
2014-06-19T18:33:08.772Z,100644
2014-06-19T18:33:27.100Z,100650
2014-06-19T18:33:45.431Z,100641
2014-06-19T18:34:03.774Z,100641
2014-06-19T18:34:22.102Z,100641
2014-06-19T18:34:40.433Z,100647
2014-06-19T18:34:58.761Z,100647
2014-06-19T18:35:17.089Z,100647
2014-06-19T18:35:35.417Z,100653
2014-06-19T18:35:53.747Z,100657
2014-06-19T18:36:12.075Z,100647
2014-06-19T18:36:30.403Z,100650
2014-06-19T18:36:48.749Z,100655
2014-06-19T18:37:07.077Z,100660
2014-06-19T18:37:25.405Z,100653
2014-06-19T18:37:43.735Z,100657
2014-06-19T18:38:02.064Z,100647
2014-06-19T18:38:20.407Z,100657
2014-06-19T18:38:38.735Z,100635
2014-06-19T18:38:57.066Z,100653
2014-06-19T18:39:15.394Z,100653
2014-06-19T18:39:33.722Z,100647
2014-06-19T18:39:52.068Z,100650
2014-06-19T18:40:10.396Z,100644
2014-06-19T18:40:28.724Z,100644
2014-06-19T18:40:47.052Z,100653
2014-06-19T18:41:05.382Z,100647
2014-06-19T18:41:23.710Z,100653
2014-06-19T18:41:42.038Z,100650
2014-06-19T18:42:00.384Z,100653
2014-06-19T18:42:18.697Z,100650
2014-06-19T18:42:37.040Z,100655
2014-06-19T18:42:55.368Z,100655
2014-06-19T18:43:13.699Z,100650
2014-06-19T18:43:32.042Z,100657
2014-06-19T18:43:50.370Z,100650
2014-06-19T18:44:08.702Z,100635
2014-06-19T18:44:27.045Z,100641
2014-06-19T18:44:45.373Z,100650
2014-06-19T18:45:03.702Z,100630
2014-06-19T18:45:22.031Z,100647
2014-06-19T18:45:40.374Z,100641
2014-06-19T18:45:58.703Z,100660
2014-06-19T18:46:17.034Z,100655
2014-06-19T18:46:35.362Z,100647
2014-06-19T18:46:53.706Z,100655
2014-06-19T18:47:12.034Z,100660
2014-06-19T18:47:30.363Z,100663
2014-06-19T18:47:48.707Z,100655
2014-06-19T18:48:07.035Z,100653
2014-06-19T18:48:25.365Z,100657
2014-06-19T18:48:43.693Z,100655
2014-06-19T18:49:02.021Z,100660
2014-06-19T18:49:20.365Z,100660
2014-06-19T18:49:38.696Z,100666
2014-06-19T18:49:57.024Z,100653
2014-06-19T18:50:15.368Z,100663
2014-06-19T18:50:33.697Z,100647
2014-06-19T18:50:52.025Z,100657
2014-06-19T18:51:10.369Z,100657
2014-06-19T18:51:28.697Z,100655
2014-06-19T18:51:47.028Z,100657
2014-06-19T18:52:05.372Z,100655
2014-06-19T18:52:23.700Z,100653
2014-06-19T18:52:42.030Z,100660
2014-06-19T18:53:00.374Z,100655
2014-06-19T18:53:18.702Z,100657
2014-06-19T18:53:37.030Z,100660
2014-06-19T18:53:55.376Z,100657
2014-06-19T18:54:13.704Z,100660
2014-06-19T18:54:32.032Z,100653
2014-06-19T18:54:50.378Z,100650
2014-06-19T18:55:08.706Z,100657
2014-06-19T18:55:27.050Z,100653
2014-06-19T18:55:45.379Z,100650
2014-06-19T18:56:03.707Z,100652
2014-06-19T18:56:22.051Z,100650
2014-06-19T18:56:40.381Z,100652
2014-06-19T18:56:58.740Z,100652
2014-06-19T18:57:17.068Z,100650
2014-06-19T18:57:35.396Z,100652
2014-06-19T18:57:53.727Z,100660
2014-06-19T18:58:12.070Z,100652
2014-06-19T18:58:30.398Z,100655
2014-06-19T18:58:48.729Z,100655
2014-06-19T18:59:07.072Z,100650
2014-06-19T18:59:25.400Z,100650
2014-06-19T18:59:43.732Z,100663
2014-06-19T19:00:02.060Z,100657
2014-06-19T19:00:20.388Z,100647
2014-06-19T19:00:38.733Z,100650
2014-06-19T19:00:57.061Z,100663
2014-06-19T19:01:15.389Z,100650
2014-06-19T19:01:33.717Z,100650
2014-06-19T19:01:52.063Z,100660
2014-06-19T19:02:10.391Z,100657
2014-06-19T19:02:28.719Z,100653
2014-06-19T19:02:47.065Z,100669
2014-06-19T19:03:05.393Z,100660
2014-06-19T19:03:23.721Z,100655
2014-06-19T19:03:42.051Z,100660
2014-06-19T19:04:00.395Z,100666
2014-06-19T19:04:18.723Z,100657
2014-06-19T19:04:37.051Z,100657
2014-06-19T19:04:55.397Z,100672
2014-06-19T19:05:13.725Z,100655
2014-06-19T19:05:32.053Z,100657
2014-06-19T19:05:50.398Z,100657
2014-06-19T19:06:08.726Z,100669
2014-06-19T19:06:27.054Z,100666
2014-06-19T19:06:45.384Z,100657
2014-06-19T19:07:03.728Z,100666
2014-06-19T19:07:22.056Z,100655
2014-06-19T19:07:40.386Z,100655
2014-06-19T19:07:58.714Z,100657
2014-06-19T19:08:17.058Z,100655
2014-06-19T19:08:35.386Z,100660
2014-06-19T19:08:53.716Z,100660
2014-06-19T19:09:12.044Z,100663
2014-06-19T19:09:30.388Z,100657
2014-06-19T19:09:48.719Z,100657
2014-06-19T19:10:07.047Z,100666
2014-06-19T19:10:25.376Z,100657
2014-06-19T19:10:43.721Z,100655
2014-06-19T19:11:02.049Z,100672
2014-06-19T19:11:20.378Z,100660
2014-06-19T19:11:38.706Z,100663
2014-06-19T19:11:57.050Z,100663
2014-06-19T19:12:15.379Z,100663
2014-06-19T19:12:33.707Z,100660
2014-06-19T19:12:52.052Z,100663
2014-06-19T19:13:10.381Z,100672
2014-06-19T19:13:28.724Z,100666
2014-06-19T19:13:47.054Z,100658
2014-06-19T19:14:05.383Z,100650
2014-06-19T19:14:23.711Z,100653
2014-06-19T19:14:42.041Z,100660
2014-06-19T19:15:00.385Z,100669
2014-06-19T19:15:18.713Z,100663
2014-06-19T19:15:37.041Z,100666
2014-06-19T19:15:55.387Z,100666
2014-06-19T19:16:13.715Z,100660
2014-06-19T19:16:32.043Z,100653
2014-06-19T19:16:50.373Z,100666
2014-06-19T19:17:08.701Z,100666
2014-06-19T19:17:27.045Z,100666
2014-06-19T19:17:45.391Z,100666
2014-06-19T19:18:03.719Z,100666
2014-06-19T19:18:22.047Z,100666
2014-06-19T19:18:40.377Z,100666
2014-06-19T19:18:58.721Z,100675
2014-06-19T19:19:17.049Z,100660
2014-06-19T19:19:35.377Z,100663
2014-06-19T19:19:53.706Z,100663
2014-06-19T19:20:12.034Z,100663
2014-06-19T19:20:30.378Z,100666
2014-06-19T19:20:48.708Z,100655
2014-06-19T19:21:07.052Z,100669
2014-06-19T19:21:25.380Z,100660
2014-06-19T19:21:43.710Z,100669
2014-06-19T19:22:02.054Z,100658
2014-06-19T19:22:20.382Z,100660
2014-06-19T19:22:38.741Z,100655
2014-06-19T19:22:57.041Z,100663
2014-06-19T19:23:15.385Z,100660
2014-06-19T19:23:33.713Z,100658
2014-06-19T19:23:52.043Z,100663
2014-06-19T19:24:10.387Z,100660
2014-06-19T19:24:28.715Z,100655
2014-06-19T19:24:47.045Z,100672
2014-06-19T19:25:05.373Z,100666
2014-06-19T19:25:23.701Z,100660
2014-06-19T19:25:42.046Z,100663
2014-06-19T19:26:00.374Z,100663
2014-06-19T19:26:18.718Z,100660
2014-06-19T19:26:37.046Z,100660
2014-06-19T19:26:55.392Z,100660
2014-06-19T19:27:13.704Z,100666
2014-06-19T19:27:32.048Z,100663
2014-06-19T19:27:50.378Z,100669
2014-06-19T19:28:08.706Z,100669
2014-06-19T19:28:27.050Z,100655
2014-06-19T19:28:45.379Z,100663
2014-06-19T19:29:03.707Z,100661
2014-06-19T19:29:22.051Z,100655
2014-06-19T19:29:40.382Z,100658
2014-06-19T19:29:58.726Z,100655
2014-06-19T19:30:17.054Z,100661
2014-06-19T19:30:35.398Z,100647
2014-06-19T19:30:53.728Z,100658
2014-06-19T19:31:12.056Z,100650
2014-06-19T19:31:30.384Z,100669
2014-06-19T19:31:48.714Z,100658
2014-06-19T19:32:07.058Z,100663
2014-06-19T19:32:25.386Z,100661
2014-06-19T19:32:43.715Z,100661
2014-06-19T19:33:02.059Z,100666
2014-06-19T19:33:20.387Z,100669
2014-06-19T19:33:38.715Z,100672
2014-06-19T19:33:57.046Z,100661
2014-06-19T19:34:15.374Z,100661
2014-06-19T19:34:33.717Z,100672
2014-06-19T19:34:52.048Z,100661
2014-06-19T19:35:10.376Z,100666
2014-06-19T19:35:28.704Z,100658
2014-06-19T19:35:47.050Z,100661
2014-06-19T19:36:05.378Z,100666
2014-06-19T19:36:23.706Z,100663
2014-06-19T19:36:42.052Z,100666
2014-06-19T19:37:00.380Z,100672
2014-06-19T19:37:18.723Z,100661
2014-06-19T19:37:37.052Z,100672
2014-06-19T19:37:55.382Z,100661
2014-06-19T19:38:13.725Z,100658
2014-06-19T19:38:32.054Z,100650
2014-06-19T19:38:50.384Z,100663
2014-06-19T19:39:08.712Z,100661
2014-06-19T19:39:27.056Z,100666
2014-06-19T19:39:45.386Z,100658
2014-06-19T19:40:03.714Z,100669
2014-06-19T19:40:22.042Z,100669
2014-06-19T19:40:40.388Z,100666
2014-06-19T19:40:58.716Z,100666
2014-06-19T19:41:17.044Z,100663
2014-06-19T19:41:35.388Z,100675
2014-06-19T19:41:53.718Z,100666
2014-06-19T19:42:12.046Z,100666